createdAt,value
2022-11-10T00:01:10.552Z,9.35
2022-11-10T00:03:40.208Z,8.40
2022-11-10T00:06:09.508Z,8.55
2022-11-10T00:08:37.256Z,8.80
2022-11-10T00:11:06.990Z,8.43
2022-11-10T00:13:57.438Z,8.63
2022-11-10T00:16:43.595Z,9.10
2022-11-10T00:19:10.909Z,8.95
2022-11-10T00:21:38.809Z,8.57
2022-11-10T00:24:06.211Z,8.90
2022-11-10T00:26:33.435Z,8.70
2022-11-10T00:29:00.958Z,8.88
2022-11-10T00:31:28.466Z,9.05
2022-11-10T00:33:56.120Z,8.95
2022-11-10T00:36:24.056Z,8.55
2022-11-10T00:38:51.935Z,8.65
2022-11-10T00:41:19.900Z,8.40
2022-11-10T00:43:47.618Z,8.18
2022-11-10T00:46:15.656Z,8.57
2022-11-10T00:48:42.943Z,8.70
2022-11-10T00:51:22.416Z,8.90
2022-11-10T00:53:50.710Z,8.60
2022-11-10T00:56:18.433Z,8.65
2022-11-10T00:58:45.956Z,8.50
2022-11-10T01:01:14.958Z,8.27
2022-11-10T01:03:42.560Z,7.90
2022-11-10T01:06:15.607Z,8.25
2022-11-10T01:08:43.843Z,8.65
2022-11-10T01:11:16.864Z,8.07
2022-11-10T01:13:45.616Z,8.32
2022-11-10T01:16:16.479Z,8.60
2022-11-10T01:18:43.885Z,8.10
2022-11-10T01:21:11.431Z,8.10
2022-11-10T01:23:38.744Z,8.35
2022-11-10T01:26:07.276Z,8.45
2022-11-10T01:28:35.944Z,8.15
2022-11-10T01:31:11.862Z,8.13
2022-11-10T01:33:39.982Z,8.60
2022-11-10T01:36:09.169Z,8.00
2022-11-10T01:38:38.565Z,7.88
2022-11-10T01:41:10.929Z,7.72
2022-11-10T01:43:39.220Z,7.60
2022-11-10T01:46:08.830Z,8.20
2022-11-10T01:48:47.548Z,8.65
2022-11-10T01:51:32.128Z,7.90
2022-11-10T01:54:04.354Z,7.97
2022-11-10T01:56:36.732Z,8.25
2022-11-10T01:59:09.007Z,8.20
2022-11-10T02:01:36.296Z,8.18
2022-11-10T02:04:08.234Z,7.57
2022-11-10T02:06:39.664Z,8.35
2022-11-10T02:09:07.518Z,8.00
2022-11-10T02:11:37.492Z,8.20
2022-11-10T02:14:05.569Z,7.82
2022-11-10T02:16:33.627Z,8.45
2022-11-10T02:19:22.667Z,7.57
2022-11-10T02:21:50.324Z,7.80
2022-11-10T02:24:19.061Z,7.82
2022-11-10T02:26:56.529Z,8.00
2022-11-10T02:29:25.600Z,7.57
2022-11-10T02:31:53.051Z,7.82
2022-11-10T02:34:20.317Z,8.13
2022-11-10T02:36:47.952Z,7.78
2022-11-10T02:39:15.500Z,7.63
2022-11-10T02:41:43.135Z,8.35
2022-11-10T02:44:10.440Z,8.38
2022-11-10T02:46:37.728Z,8.30
2022-11-10T02:49:05.423Z,8.48
2022-11-10T02:51:32.860Z,7.82
2022-11-10T02:54:00.656Z,8.00
2022-11-10T02:56:28.361Z,7.93
2022-11-10T02:58:55.653Z,8.10
2022-11-10T03:01:22.905Z,7.82
2022-11-10T03:03:50.513Z,7.70
2022-11-10T03:06:17.816Z,8.00
2022-11-10T03:08:45.409Z,7.53
2022-11-10T03:11:12.994Z,7.72
2022-11-10T03:14:00.515Z,7.60
2022-11-10T03:16:27.760Z,7.53
2022-11-10T03:18:55.255Z,7.90
2022-11-10T03:21:22.529Z,7.38
2022-11-10T03:23:50.154Z,7.95
2022-11-10T03:26:17.813Z,7.60
2022-11-10T03:28:45.057Z,8.18
2022-11-10T03:31:12.663Z,7.95
2022-11-10T03:33:39.941Z,8.50
2022-11-10T03:36:07.512Z,7.95
2022-11-10T03:38:35.064Z,8.25
2022-11-10T03:41:19.666Z,7.63
2022-11-10T03:43:49.189Z,7.78
2022-11-10T03:46:17.120Z,7.38
2022-11-10T03:48:47.486Z,8.18
2022-11-10T03:51:19.901Z,7.90
2022-11-10T03:53:47.153Z,7.72
2022-11-10T03:56:14.698Z,7.70
2022-11-10T03:58:42.000Z,7.68
2022-11-10T04:01:09.930Z,7.93
2022-11-10T04:03:37.507Z,8.48
2022-11-10T04:06:23.338Z,7.93
2022-11-10T04:09:00.112Z,7.72
2022-11-10T04:11:49.962Z,7.78
2022-11-10T04:14:36.199Z,7.78
2022-11-10T04:17:03.916Z,7.68
2022-11-10T04:19:32.684Z,7.88
2022-11-10T04:21:59.934Z,7.78
2022-11-10T04:24:27.176Z,8.90
2022-11-10T04:26:54.789Z,8.02
2022-11-10T04:29:22.046Z,8.73
2022-11-10T04:31:49.316Z,8.35
2022-11-10T04:34:16.926Z,8.02
2022-11-10T04:36:45.045Z,7.80
2022-11-10T04:39:13.197Z,8.35
2022-11-10T04:41:40.516Z,8.45
2022-11-10T04:44:08.382Z,7.50
2022-11-10T04:46:38.331Z,7.78
2022-11-10T04:49:07.643Z,8.43
2022-11-10T04:51:37.672Z,7.90
2022-11-10T04:54:07.134Z,8.40
2022-11-10T04:56:34.915Z,8.65
2022-11-10T04:59:02.586Z,8.10
2022-11-10T05:01:29.971Z,7.88
2022-11-10T05:03:58.322Z,7.97
2022-11-10T05:06:25.528Z,8.68
2022-11-10T05:08:52.919Z,8.38
2022-11-10T05:11:21.284Z,7.93
2022-11-10T05:13:48.552Z,7.97
2022-11-10T05:16:15.760Z,8.43
2022-11-10T05:18:43.364Z,8.50
2022-11-10T05:21:10.662Z,8.02
2022-11-10T05:23:38.539Z,7.75
2022-11-10T05:26:16.616Z,8.13
2022-11-10T05:28:45.797Z,8.65
2022-11-10T05:31:13.709Z,8.45
2022-11-10T05:33:41.240Z,7.78
2022-11-10T05:36:10.480Z,8.02
2022-11-10T05:38:43.208Z,8.52
2022-11-10T05:41:11.738Z,8.13
2022-11-10T05:43:39.093Z,8.15
2022-11-10T05:46:06.445Z,8.43
2022-11-10T05:48:33.997Z,8.18
2022-11-10T05:51:01.296Z,8.13
2022-11-10T05:53:28.960Z,8.13
2022-11-10T05:55:56.229Z,8.48
2022-11-10T05:58:23.639Z,7.90
2022-11-10T06:00:51.379Z,8.52
2022-11-10T06:03:20.440Z,8.30
2022-11-10T06:05:48.100Z,8.77
2022-11-10T06:08:17.669Z,7.85
2022-11-10T06:10:45.233Z,7.68
2022-11-10T06:13:12.459Z,7.63
2022-11-10T06:15:40.367Z,8.13
2022-11-10T06:18:07.873Z,7.82
2022-11-10T06:20:35.185Z,8.73
2022-11-10T06:23:10.445Z,7.85
2022-11-10T06:25:39.351Z,7.50
2022-11-10T06:28:08.281Z,7.88
2022-11-10T06:30:36.920Z,8.18
2022-11-10T06:33:04.703Z,7.75
2022-11-10T06:35:32.496Z,8.27
2022-11-10T06:38:08.056Z,7.75
2022-11-10T06:40:35.387Z,8.35
2022-11-10T06:43:03.652Z,7.78
2022-11-10T06:45:30.952Z,8.13
2022-11-10T06:48:05.705Z,8.07
2022-11-10T06:50:33.105Z,7.53
2022-11-10T06:53:01.285Z,8.52
2022-11-10T06:55:29.305Z,8.00
2022-11-10T06:57:57.639Z,7.57
2022-11-10T07:00:26.263Z,7.53
2022-11-10T07:03:20.458Z,8.30
2022-11-10T07:05:48.064Z,7.90
2022-11-10T07:08:16.432Z,7.88
2022-11-10T07:10:51.401Z,8.13
2022-11-10T07:13:19.503Z,8.73
2022-11-10T07:15:47.120Z,8.35
2022-11-10T07:18:14.464Z,7.70
2022-11-10T07:20:42.087Z,8.38
2022-11-10T07:23:09.396Z,8.25
2022-11-10T07:25:37.692Z,8.10
2022-11-10T07:28:07.464Z,7.72
2022-11-10T07:30:36.801Z,7.95
2022-11-10T07:33:12.827Z,7.50
2022-11-10T07:35:40.849Z,7.03
2022-11-10T07:38:11.620Z,7.45
2022-11-10T07:40:39.479Z,7.25
2022-11-10T07:43:07.085Z,7.75
2022-11-10T07:45:34.626Z,7.50
2022-11-10T07:48:03.117Z,8.20
2022-11-10T07:50:32.089Z,8.15
2022-11-10T07:53:14.462Z,7.97
2022-11-10T07:55:44.883Z,7.70
2022-11-10T07:58:14.893Z,7.47
2022-11-10T08:00:43.988Z,7.93
2022-11-10T08:03:13.660Z,7.70
2022-11-10T08:05:41.605Z,7.78
2022-11-10T08:08:09.019Z,7.63
2022-11-10T08:10:36.877Z,7.15
2022-11-10T08:13:07.163Z,8.23
2022-11-10T08:15:35.487Z,7.20
2022-11-10T08:18:04.720Z,7.45
2022-11-10T08:20:33.247Z,7.88
2022-11-10T08:23:03.540Z,7.75
2022-11-10T08:25:35.331Z,7.57
2022-11-10T08:28:10.868Z,7.60
2022-11-10T08:30:41.157Z,7.60
2022-11-10T08:33:10.627Z,7.63
2022-11-10T08:35:40.963Z,8.40
2022-11-10T08:38:11.049Z,7.78
2022-11-10T08:40:40.097Z,7.88
2022-11-10T08:43:08.674Z,7.60
2022-11-10T08:45:37.539Z,7.28
2022-11-10T08:48:07.342Z,8.27
2022-11-10T08:50:36.515Z,7.60
2022-11-10T08:53:11.164Z,7.82
2022-11-10T08:55:39.668Z,7.80
2022-11-10T08:58:08.667Z,7.50
2022-11-10T09:00:36.270Z,8.13
2022-11-10T09:03:12.420Z,8.05
2022-11-10T09:05:41.091Z,7.68
2022-11-10T09:08:09.383Z,7.40
2022-11-10T09:10:40.092Z,7.68
2022-11-10T09:13:07.791Z,7.55
2022-11-10T09:15:35.114Z,7.82
2022-11-10T09:18:05.199Z,7.65
2022-11-10T09:20:34.621Z,7.97
2022-11-10T09:23:11.130Z,7.88
2022-11-10T09:25:38.713Z,7.85
2022-11-10T09:28:11.362Z,7.65
2022-11-10T09:30:39.097Z,8.20
2022-11-10T09:33:06.858Z,7.78
2022-11-10T09:35:34.137Z,7.95
2022-11-10T09:38:01.708Z,7.43
2022-11-10T09:40:38.001Z,8.10
2022-11-10T09:43:08.813Z,8.00
2022-11-10T09:45:42.609Z,8.00
2022-11-10T09:48:22.686Z,8.18
2022-11-10T09:50:58.480Z,7.88
2022-11-10T09:53:35.020Z,8.60
2022-11-10T09:56:07.312Z,7.55
2022-11-10T09:58:41.478Z,7.70
2022-11-10T10:01:14.693Z,7.70
2022-11-10T10:03:52.638Z,7.85
2022-11-10T10:06:22.164Z,7.63
2022-11-10T10:09:17.401Z,7.90
2022-11-10T10:11:55.341Z,7.70
2022-11-10T10:14:38.609Z,7.68
2022-11-10T10:17:41.650Z,7.90
2022-11-10T10:20:12.632Z,7.78
2022-11-10T10:22:52.581Z,8.10
2022-11-10T10:25:26.355Z,7.95
2022-11-10T10:28:28.927Z,7.70
2022-11-10T10:31:13.783Z,8.45
2022-11-10T10:33:41.224Z,7.83
2022-11-10T10:36:18.360Z,7.82
2022-11-10T10:38:49.521Z,9.10
2022-11-10T10:41:25.309Z,9.98
2022-11-10T10:43:56.583Z,10.32
2022-11-10T10:46:32.919Z,9.90
2022-11-10T10:49:29.669Z,9.98
2022-11-10T10:52:06.576Z,10.27
2022-11-10T10:54:38.335Z,9.85
2022-11-10T10:57:29.107Z,9.88
2022-11-10T11:00:20.544Z,10.13
2022-11-10T11:03:22.062Z,8.90
2022-11-10T11:06:14.997Z,9.38
2022-11-10T11:09:16.934Z,9.88
2022-11-10T11:11:46.104Z,9.25
2022-11-10T11:14:28.763Z,9.25
2022-11-10T11:17:12.599Z,9.32
2022-11-10T11:19:40.382Z,9.48
2022-11-10T11:22:19.911Z,9.15
2022-11-10T11:25:16.914Z,8.95
2022-11-10T11:28:05.687Z,9.57
2022-11-10T11:30:42.296Z,9.00
2022-11-10T11:33:18.287Z,8.98
2022-11-10T11:36:08.033Z,9.27
2022-11-10T11:38:56.013Z,9.20
2022-11-10T11:41:46.360Z,8.68
2022-11-10T11:44:37.729Z,8.45
2022-11-10T11:47:47.030Z,9.82
2022-11-10T11:50:38.837Z,10.32
2022-11-10T11:53:06.360Z,9.75
2022-11-10T11:56:24.702Z,9.40
2022-11-10T11:59:07.376Z,8.50
2022-11-10T12:02:03.796Z,9.00
2022-11-10T12:04:37.553Z,9.48
2022-11-10T12:07:31.875Z,8.65
2022-11-10T12:10:14.651Z,9.30
2022-11-10T12:13:00.144Z,9.32
2022-11-10T12:18:24.028Z,8.35
2022-11-10T12:21:00.800Z,9.15
2022-11-10T12:23:42.955Z,9.15
2022-11-10T12:26:19.845Z,8.70
2022-11-10T12:28:59.920Z,8.68
2022-11-10T12:31:32.444Z,8.45
2022-11-10T12:34:14.240Z,8.50
2022-11-10T12:36:43.409Z,8.00
2022-11-10T12:39:21.902Z,8.35
2022-11-10T12:41:55.972Z,7.97
2022-11-10T12:44:43.326Z,7.80
2022-11-10T12:47:14.312Z,8.15
2022-11-10T12:49:52.220Z,8.05
2022-11-10T12:52:29.891Z,8.10
2022-11-10T12:54:57.141Z,8.38
2022-11-10T12:57:27.263Z,8.32
2022-11-10T13:00:03.616Z,8.32
2022-11-10T13:02:42.722Z,7.50
2022-11-10T13:05:34.374Z,8.35
2022-11-10T13:08:27.442Z,8.07
2022-11-10T13:11:02.492Z,7.72
2022-11-10T13:13:37.299Z,8.25
2022-11-10T13:18:32.447Z,7.53
2022-11-10T13:20:59.928Z,7.88
2022-11-10T13:23:33.231Z,7.88
2022-11-10T13:26:02.090Z,7.30
2022-11-10T13:28:48.325Z,7.38
2022-11-10T13:31:28.262Z,7.80
2022-11-10T13:34:07.604Z,8.15
2022-11-10T13:36:49.402Z,7.15
2022-11-10T13:39:20.262Z,7.05
2022-11-10T13:41:50.035Z,7.32
2022-11-10T13:44:35.454Z,7.03
2022-11-10T13:47:09.065Z,7.45
2022-11-10T13:50:07.212Z,6.75
2022-11-10T13:53:08.716Z,7.32
2022-11-10T13:56:02.388Z,7.03
2022-11-10T13:58:33.146Z,6.70
2022-11-10T14:01:18.779Z,7.03
2022-11-10T14:03:46.466Z,6.43
2022-11-10T14:06:24.210Z,6.78
2022-11-10T14:09:09.580Z,6.70
2022-11-10T14:11:50.752Z,6.22
2022-11-10T14:14:27.125Z,6.07
2022-11-10T14:16:55.429Z,6.43
2022-11-10T14:19:36.321Z,6.30
2022-11-10T14:22:11.784Z,6.03
2022-11-10T14:24:53.625Z,6.70
2022-11-10T14:27:25.898Z,5.50
2022-11-10T14:30:27.677Z,5.72
2022-11-10T14:33:12.994Z,6.25
2022-11-10T14:36:02.423Z,6.07
2022-11-10T14:38:37.199Z,6.07
2022-11-10T14:41:06.679Z,6.18
2022-11-10T14:43:39.030Z,6.03
2022-11-10T14:46:07.523Z,6.00
2022-11-10T14:48:37.155Z,6.30
2022-11-10T14:51:11.609Z,5.90
2022-11-10T14:53:45.642Z,5.80
2022-11-10T14:56:27.116Z,5.55
2022-11-10T14:58:56.340Z,5.43
2022-11-10T15:01:33.680Z,5.45
2022-11-10T15:04:04.044Z,5.90
2022-11-10T15:06:32.810Z,5.60
2022-11-10T15:09:15.941Z,6.00
2022-11-10T15:12:07.569Z,5.25
2022-11-10T15:14:38.602Z,5.45
2022-11-10T15:17:08.884Z,4.90
2022-11-10T15:19:56.267Z,5.47
2022-11-10T15:22:31.302Z,5.70
2022-11-10T15:27:31.060Z,5.38
2022-11-10T15:30:01.329Z,5.25
2022-11-10T15:32:41.564Z,5.53
2022-11-10T15:35:11.636Z,5.38
2022-11-10T15:37:39.200Z,5.05
2022-11-10T15:40:28.325Z,5.13
2022-11-10T15:43:15.202Z,5.80
2022-11-10T15:45:44.042Z,5.60
2022-11-10T15:48:14.286Z,5.35
2022-11-10T15:50:44.233Z,5.43
2022-11-10T15:53:15.482Z,5.20
2022-11-10T15:55:44.548Z,4.95
2022-11-10T15:58:18.461Z,4.95
2022-11-10T16:00:46.951Z,5.40
2022-11-10T16:03:18.157Z,4.35
2022-11-10T16:05:45.913Z,4.75
2022-11-10T16:08:16.349Z,5.25
2022-11-10T16:10:46.844Z,5.00
2022-11-10T16:13:27.523Z,5.30
2022-11-10T16:15:55.974Z,6.10
2022-11-10T16:18:28.161Z,5.00
2022-11-10T16:20:55.475Z,5.50
2022-11-10T16:23:24.316Z,5.50
2022-11-10T16:25:54.852Z,4.82
2022-11-10T16:28:26.531Z,4.95
2022-11-10T16:30:55.257Z,5.43
2022-11-10T16:33:24.574Z,5.05
2022-11-10T16:35:53.676Z,5.10
2022-11-10T16:38:30.110Z,4.93
2022-11-10T16:41:00.141Z,5.55
2022-11-10T16:43:29.091Z,5.00
2022-11-10T16:45:59.035Z,5.40
2022-11-10T16:48:32.804Z,5.20
2022-11-10T16:51:00.726Z,5.50
2022-11-10T16:53:30.584Z,5.00
2022-11-10T16:55:58.610Z,5.20
2022-11-10T16:58:27.332Z,5.32
2022-11-10T17:01:00.941Z,5.05
2022-11-10T17:03:38.112Z,5.38
2022-11-10T17:06:06.157Z,5.40
2022-11-10T17:08:35.431Z,6.32
2022-11-10T17:11:02.728Z,6.63
2022-11-10T17:13:30.248Z,7.13
2022-11-10T17:16:07.508Z,6.75
2022-11-10T17:18:35.580Z,6.90
2022-11-10T17:21:05.838Z,6.57
2022-11-10T17:23:35.338Z,8.20
2022-11-10T17:26:02.712Z,6.40
2022-11-10T17:28:30.717Z,6.60
2022-11-10T17:30:58.025Z,7.03
2022-11-10T17:33:25.616Z,7.80
2022-11-10T17:35:54.298Z,6.75
2022-11-10T17:38:27.412Z,6.78
2022-11-10T17:40:55.144Z,6.55
2022-11-10T17:43:23.406Z,7.20
2022-11-10T17:45:51.839Z,6.97
2022-11-10T17:48:19.200Z,6.72
2022-11-10T17:50:47.104Z,6.63
2022-11-10T17:53:20.151Z,7.13
2022-11-10T17:55:48.496Z,7.00
2022-11-10T17:58:17.888Z,7.38
2022-11-10T18:00:46.413Z,6.78
2022-11-10T18:03:15.759Z,6.28
2022-11-10T18:05:43.997Z,7.05
2022-11-10T18:08:12.737Z,6.82
2022-11-10T18:10:47.352Z,7.82
2022-11-10T18:13:15.245Z,7.10
2022-11-10T18:15:44.791Z,7.28
2022-11-10T18:18:16.914Z,7.30
2022-11-10T18:20:44.655Z,6.68
2022-11-10T18:23:12.816Z,7.35
2022-11-10T18:25:41.497Z,7.38
2022-11-10T18:28:12.288Z,6.82
2022-11-10T18:30:41.149Z,7.43
2022-11-10T18:33:10.605Z,7.53
2022-11-10T18:35:39.501Z,7.78
2022-11-10T18:38:09.026Z,7.47
2022-11-10T18:40:36.333Z,7.97
2022-11-10T18:43:07.414Z,7.78
2022-11-10T18:45:36.142Z,7.63
2022-11-10T18:48:04.476Z,7.75
2022-11-10T18:50:31.874Z,7.43
2022-11-10T18:52:59.472Z,7.15
2022-11-10T18:55:26.820Z,8.40
2022-11-10T18:57:55.177Z,8.30
2022-11-10T19:00:22.577Z,8.07
2022-11-10T19:02:50.195Z,8.93
2022-11-10T19:05:17.505Z,9.30
2022-11-10T19:07:45.061Z,9.93
2022-11-10T19:10:12.440Z,10.63
2022-11-10T19:12:40.155Z,10.63
2022-11-10T19:15:08.681Z,11.07
2022-11-10T19:17:36.174Z,11.00
2022-11-10T19:20:03.592Z,10.95
2022-11-10T19:22:31.107Z,10.82
2022-11-10T19:25:08.288Z,10.82
2022-11-10T19:27:36.565Z,10.43
2022-11-10T19:30:04.245Z,10.77
2022-11-10T19:32:31.813Z,10.32
2022-11-10T19:34:59.339Z,11.00
2022-11-10T19:37:30.896Z,11.10
2022-11-10T19:40:01.861Z,10.80
2022-11-10T19:42:29.581Z,11.07
2022-11-10T19:44:57.921Z,11.00
2022-11-10T19:47:25.836Z,10.75
2022-11-10T19:49:53.135Z,12.05
2022-11-10T19:52:20.677Z,11.15
2022-11-10T19:54:47.969Z,10.25
2022-11-10T19:57:15.531Z,9.88
2022-11-10T19:59:42.800Z,11.80
2022-11-10T20:02:13.375Z,10.70
2022-11-10T20:05:01.028Z,10.70
2022-11-10T20:07:47.088Z,10.23
2022-11-10T20:10:14.371Z,10.48
2022-11-10T20:12:41.896Z,11.05
2022-11-10T20:15:11.034Z,10.40
2022-11-10T20:17:38.951Z,10.15
2022-11-10T20:20:07.144Z,10.55
2022-11-10T20:22:34.731Z,9.68
2022-11-10T20:25:02.169Z,9.65
2022-11-10T20:27:30.023Z,10.70
2022-11-10T20:29:57.352Z,10.48
2022-11-10T20:32:25.933Z,9.65
2022-11-10T20:34:53.478Z,10.35
2022-11-10T20:37:21.715Z,10.75
2022-11-10T20:39:49.264Z,10.63
2022-11-10T20:42:16.788Z,9.82
2022-11-10T20:44:44.142Z,9.48
2022-11-10T20:47:11.720Z,10.10
2022-11-10T20:49:40.076Z,10.18
2022-11-10T20:52:07.633Z,9.98
2022-11-10T20:54:34.930Z,9.32
2022-11-10T20:57:02.727Z,10.15
2022-11-10T20:59:31.692Z,9.80
2022-11-10T21:01:59.341Z,9.77
2022-11-10T21:04:27.052Z,9.88
2022-11-10T21:06:54.759Z,10.23
2022-11-10T21:09:22.695Z,10.05
2022-11-10T21:12:08.917Z,10.30
2022-11-10T21:14:36.133Z,9.88
2022-11-10T21:17:04.910Z,9.55
2022-11-10T21:19:33.548Z,11.05
2022-11-10T21:22:01.903Z,11.40
2022-11-10T21:24:29.285Z,9.98
2022-11-10T21:26:57.760Z,9.60
2022-11-10T21:29:25.567Z,10.00
2022-11-10T21:31:53.131Z,10.30
2022-11-10T21:34:20.697Z,10.77
2022-11-10T21:36:48.032Z,10.35
2022-11-10T21:39:15.817Z,11.88
2022-11-10T21:41:43.656Z,11.55
2022-11-10T21:44:11.212Z,13.27
2022-11-10T21:46:38.561Z,12.43
2022-11-10T21:49:07.849Z,12.70
2022-11-10T21:51:35.787Z,12.45
2022-11-10T21:54:03.076Z,13.02
2022-11-10T21:56:30.943Z,12.52
2022-11-10T21:58:58.417Z,13.48
2022-11-10T22:01:25.842Z,13.38
2022-11-10T22:03:53.443Z,14.07
2022-11-10T22:06:21.428Z,13.88
2022-11-10T22:08:48.715Z,13.88
2022-11-10T22:11:39.702Z,13.45
2022-11-10T22:14:32.074Z,13.20
2022-11-10T22:17:18.206Z,13.45
2022-11-10T22:19:45.572Z,13.95
2022-11-10T22:22:14.317Z,13.65
2022-11-10T22:24:41.807Z,13.25
2022-11-10T22:27:09.506Z,13.10
2022-11-10T22:29:36.857Z,13.60
2022-11-10T22:32:04.843Z,13.80
2022-11-10T22:34:32.322Z,13.85
2022-11-10T22:36:59.832Z,13.45
2022-11-10T22:39:49.690Z,12.75
2022-11-10T22:42:35.578Z,14.25
2022-11-10T22:45:03.386Z,14.15
2022-11-10T22:47:50.617Z,14.38
2022-11-10T22:50:18.204Z,15.35
2022-11-10T22:52:45.448Z,13.75
2022-11-10T22:55:12.932Z,14.32
2022-11-10T22:57:40.428Z,13.38
2022-11-10T23:00:09.043Z,13.68
2022-11-10T23:02:37.227Z,14.40
2022-11-10T23:05:04.749Z,13.38
2022-11-10T23:07:31.999Z,14.43
2022-11-10T23:09:59.566Z,14.32
2022-11-10T23:12:27.049Z,14.00
2022-11-10T23:14:54.691Z,13.70
2022-11-10T23:17:21.978Z,14.82
2022-11-10T23:19:49.651Z,14.00
2022-11-10T23:22:16.984Z,14.20
2022-11-10T23:24:44.513Z,13.63
2022-11-10T23:27:11.879Z,13.75
2022-11-10T23:29:39.489Z,13.52
2022-11-10T23:32:06.796Z,13.80
2022-11-10T23:34:34.480Z,13.73
2022-11-10T23:37:01.700Z,13.73
2022-11-10T23:39:29.349Z,14.25
2022-11-10T23:41:56.596Z,13.88
2022-11-10T23:44:24.250Z,13.88
2022-11-10T23:46:51.531Z,13.88
2022-11-10T23:49:18.766Z,14.40
2022-11-10T23:51:46.372Z,14.05
2022-11-10T23:54:13.700Z,13.10
2022-11-10T23:56:41.943Z,14.13
2022-11-10T23:59:09.461Z,14.25
